Latest Weather Observations for Camden

IDN60801

Issued at 9:53 pm EST Sunday 3 July 2022 (issued every 10 minutes, with the page automatically refreshed every 10 minutes)

About weather observations | Map of weather stations | Latest weather observations for NSW | Other Formats
Station Details ID: 068192 Name: CAMDEN AIRPORT AWS Lat: -34.04 Lon: 150.69 Height: 73.9 m
Data from the previous 72 hours. | See also: Recent months at Camden
Date/Time
EST
Temp
°C
App
Temp
°C
Dew
Point
°C
Rel
Hum
%
Delta-T
°C
Wind Press
QNH
hPa
Press
MSL
hPa
Rain since
9am
mm
Dir  Spd
km/h
Gust
km/h
Spd
kts
Gust
kts
03/09:30pm 13.3 11.4 13.1 99 0.1 S 15 22 8 12 1017.8 1017.9 10.4
03/09:05pm 13.4 11.5 12.9 97 0.3 SSE 15 22 8 12 1017.9 1018.0 9.0
03/09:00pm 13.5 11.2 13.0 97 0.3 SSE 17 26 9 14 1017.9 1018.0 8.6
03/08:57pm 13.5 10.8 13.0 97 0.3 S 19 28 10 15 1018.0 1018.1 8.4
03/08:30pm 13.4 10.5 12.8 96 0.3 S 20 28 11 15 1018.1 1018.2 8.0
03/08:00pm 13.4 10.3 12.1 92 0.7 S 20 33 11 18 1018.1 1018.2 7.8
03/07:30pm 13.3 9.9 12.4 94 0.5 S 22 30 12 16 1018.3 1018.4 7.6
03/07:00pm 13.3 10.3 12.4 94 0.5 SSE 20 33 11 18 1018.4 1018.5 7.0
03/06:50pm 13.2 10.7 12.4 95 0.4 S 17 26 9 14 1018.3 1018.4 6.8
03/06:31pm 13.1 10.6 12.3 95 0.4 SSE 17 26 9 14 1018.2 1018.3 6.6
03/06:30pm 13.2 10.7 12.4 95 0.4 SSE 17 26 9 14 1018.2 1018.3 6.6
03/06:21pm 13.2 10.2 12.4 95 0.4 SSE 20 28 11 15 1018.2 1018.3 6.2
03/06:00pm 13.1 10.0 12.2 94 0.5 SSE 20 28 11 15 1018.1 1018.2 5.8
03/05:55pm 13.3 10.1 12.0 92 0.7 S 20 28 11 15 1018.2 1018.3 5.6
03/05:30pm 13.4 10.2 12.0 91 0.8 SSE 20 30 11 16 1018.1 1018.2 5.6
03/05:00pm 13.5 10.1 11.2 86 1.2 SSE 20 28 11 15 1018.0 1018.1 5.4
03/04:30pm 13.9 10.6 11.6 86 1.2 SSE 20 32 11 17 1018.0 1018.1 5.2
03/04:00pm 13.8 10.2 12.0 89 1.0 SSE 22 32 12 17 1018.0 1018.1 5.2
03/03:30pm 14.2 10.8 12.4 89 1.0 SSE 22 32 12 17 1018.0 1018.1 5.0
03/03:00pm 14.0 11.8 13.2 95 0.4 S 17 24 9 13 1017.9 1018.0 5.0
03/02:30pm 13.9 11.6 13.0 94 0.5 S 17 24 9 13 1018.1 1018.2 4.6
03/02:00pm 14.1 11.5 13.1 94 0.6 SSE 19 26 10 14 1018.2 1018.3 3.8
03/01:30pm 13.7 11.0 12.9 95 0.4 SSE 19 28 10 15 1018.5 1018.6 3.4
03/01:00pm 13.7 11.6 13.5 99 0.1 S 17 26 9 14 1018.7 1018.8 3.0
03/12:58pm 13.8 11.7 13.6 99 0.1 S 17 26 9 14 1018.7 1018.8 3.0
03/12:36pm 13.4 11.1 12.9 97 0.3 SSE 17 22 9 12 1019.0 1019.1 1.8
03/12:30pm 13.5 11.1 12.7 95 0.4 SSE 17 26 9 14 1019.1 1019.2 1.0
03/12:00pm 14.1 10.6 12.1 88 1.1 SSE 22 35 12 19 1019.4 1019.5 0.0
03/11:30am 14.6 11.0 11.9 84 1.5 SSE 22 33 12 18 1019.6 1019.7 0.0
03/11:00am 14.8 11.4 12.5 86 1.3 SSE 22 32 12 17 1019.7 1019.8 0.0
03/10:30am 14.6 11.3 12.8 89 1.0 SSE 22 35 12 19 1019.9 1020.0 0.0
03/10:00am 15.0 11.6 12.5 85 1.4 SSE 22 32 12 17 1019.8 1019.9 0.0
03/09:30am 14.4 11.6 13.3 93 0.6 SSE 20 32 11 17 1019.7 1019.8 0.0
03/09:00am 14.2 11.3 13.9 98 0.2 SSE 22 33 12 18 1019.6 1019.7 156.4
03/08:49am 14.2 11.6 13.9 98 0.2 SSE 20 30 11 16 1019.5 1019.6 156.2
03/08:40am 14.2 11.9 14.0 99 0.1 SSE 19 33 10 18 1019.5 1019.6 156.2
03/08:30am 13.8 12.1 13.6 99 0.1 SSE 15 28 8 15 1019.4 1019.5 156.0
03/08:12am 13.3 12.6 13.1 99 0.1 SSE 9 13 5 7 1019.4 1019.5 153.8
03/08:00am 13.4 11.2 13.2 99 0.1 SE 17 24 9 13 1019.5 1019.6 152.2
03/07:55am 13.6 11.0 13.3 98 0.2 SSE 19 33 10 18 1019.5 1019.6 151.6
03/07:30am 14.1 11.7 13.9 99 0.1 SSE 19 35 10 19 1019.2 1019.3 150.0
03/07:06am 13.9 11.8 13.7 99 0.1 SSE 17 26 9 14 1019.0 1019.1 149.4
03/07:04am 13.9 12.2 13.7 99 0.1 SSE 15 22 8 12 1019.0 1019.1 149.4
03/07:00am 13.9 12.2 13.7 99 0.1 SSE 15 22 8 12 1019.0 1019.1 149.2
03/06:43am 13.7 11.6 13.5 99 0.1 SSE 17 28 9 15 1018.9 1019.0 147.6
03/06:36am 13.8 11.1 13.6 99 0.1 SE 20 43 11 23 1018.8 1018.9 146.8
03/06:30am 13.9 10.9 13.7 99 0.1 SE 22 43 12 23 1018.6 1018.7 146.6
03/06:28am 13.7 10.6 13.5 99 0.1 SE 22 35 12 19 1018.7 1018.8 146.6
03/06:00am 13.4 11.6 13.2 99 0.1 SSE 15 20 8 11 1018.5 1018.6 144.0
03/05:36am 13.3 11.0 13.1 99 0.1 S 17 24 9 13 1018.2 1018.3 139.8
03/05:30am 13.3 11.0 13.1 99 0.1 S 17 26 9 14 1018.3 1018.4 139.0
03/05:22am 13.4 10.8 13.2 99 0.1 SSE 19 24 10 13 1018.4 1018.5 137.0
03/05:00am 13.5 11.7 13.3 99 0.1 SSE 15 28 8 15 1018.6 1018.7 133.0
03/04:52am 13.4 11.6 13.2 99 0.1 SSE 15 26 8 14 1018.6 1018.7 131.8
03/04:45am 13.4 11.2 13.2 99 0.1 SSE 17 22 9 12 1018.6 1018.7 131.0
03/04:36am 13.5 11.3 13.3 99 0.1 S 17 24 9 13 1018.5 1018.6 130.2
03/04:33am 13.5 10.9 13.3 99 0.1 S 19 24 10 13 1018.5 1018.6 130.0
03/04:30am 13.5 10.9 13.3 99 0.1 SSE 19 24 10 13 1018.5 1018.6 129.6
03/04:18am 13.7 11.0 13.5 99 0.1 SSE 20 32 11 17 1018.8 1018.9 128.4
03/04:15am 13.8 11.3 13.6 99 0.1 SSE 19 32 10 17 1018.7 1018.8 128.0
03/04:03am 13.7 12.0 13.5 99 0.1 SSE 15 20 8 11 1018.6 1018.7 126.6
03/04:02am 13.8 11.7 13.6 99 0.1 SSE 17 24 9 13 1018.6 1018.7 126.6
03/04:00am 13.8 11.7 13.6 99 0.1 SSE 17 26 9 14 1018.6 1018.7 126.4
03/03:56am 13.8 11.3 13.6 99 0.1 S 19 26 10 14 1018.8 1018.9 125.6
03/03:30am 13.5 12.1 13.3 99 0.1 S 13 17 7 9 1018.9 1019.0 124.0
03/03:21am 13.3 11.8 13.1 99 0.1 SSW 13 19 7 10 1018.9 1019.0 123.6
03/03:11am 13.3 11.8 13.1 99 0.1 S 13 19 7 10 1018.9 1019.0 122.6
03/03:00am 13.3 11.8 13.1 99 0.1 SSW 13 17 7 9 1019.1 1019.2 121.2
03/02:30am 13.5 12.5 13.3 99 0.1 SSE 11 17 6 9 1019.6 1019.7 116.6
03/02:00am 13.5 11.7 13.3 99 0.1 SSE 15 20 8 11 1019.7 1019.8 112.6
03/01:41am 13.2 12.1 13.0 99 0.1 S 11 17 6 9 1019.8 1019.9 108.6
03/01:30am 13.2 11.3 13.0 99 0.1 S 15 20 8 11 1019.8 1019.9 107.4
03/01:29am 13.2 10.9 13.0 99 0.1 S 17 20 9 11 1019.8 1019.9 107.4
03/01:20am 13.4 10.8 13.2 99 0.1 S 19 28 10 15 1019.8 1019.9 106.4
03/01:00am 13.4 10.8 13.2 99 0.1 S 19 24 10 13 1019.8 1019.9 105.0
03/12:46am 13.3 11.4 13.1 99 0.1 S 15 22 8 12 1019.9 1020.0 102.8
03/12:30am 13.3 11.4 13.1 99 0.1 S 15 20 8 11 1020.1 1020.2 100.8
03/12:00am 13.1 11.2 12.9 99 0.1 S 15 26 8 14 1020.4 1020.5 99.0
 
Date/Time
EST
Temp
°C
App
Temp
°C
Dew
Point
°C
Rel
Hum
%
Delta-T
°C
Wind Press
QNH
hPa
Press
MSL
hPa
Rain since
9am
mm
Dir  Spd
km/h
Gust
km/h
Spd
kts
Gust
kts
02/11:33pm 13.5 10.7 13.3 99 0.1 SE 20 33 11 18 1020.4 1020.5 96.4
02/11:30pm 13.6 11.1 13.4 99 0.1 SE 19 33 10 18 1020.5 1020.6 96.2
02/11:00pm 13.3 12.2 13.1 99 0.1 S 11 19 6 10 1020.4 1020.5 95.0
02/10:57pm 13.3 12.2 13.1 99 0.1 S 11 15 6 8 1020.5 1020.6 95.0
02/10:39pm 13.5 11.3 13.3 99 0.1 SE 17 32 9 17 1020.3 1020.4 94.8
02/10:30pm 13.6 11.4 13.4 99 0.1 SE 17 32 9 17 1020.4 1020.5 94.4
02/10:00pm 13.3 13.5 13.1 99 0.1 E 4 9 2 5 1020.3 1020.4 93.0
02/09:49pm 13.3 13.1 13.1 99 0.1 S 6 13 3 7 1020.3 1020.4 92.4
02/09:30pm 13.2 13.4 13.0 99 0.1 S 4 7 2 4 1020.3 1020.4 91.0
02/09:28pm 13.2 13.0 13.0 99 0.1 SSW 6 13 3 7 1020.3 1020.4 90.6
02/09:11pm 13.3 12.2 13.1 99 0.1 SSW 11 13 6 7 1020.4 1020.5 87.6
02/09:00pm 13.5 12.1 13.3 99 0.1 S 13 17 7 9 1020.5 1020.6 86.2
02/08:30pm 13.2 11.7 13.0 99 0.1 SSE 13 28 7 15 1020.5 1020.6 81.4
02/08:16pm 13.3 11.0 13.1 99 0.1 SSE 17 26 9 14 1020.4 1020.5 78.2
02/08:00pm 13.4 10.6 13.2 99 0.1 SSE 20 39 11 21 1020.4 1020.5 75.6
02/07:36pm 13.2 11.3 13.0 99 0.1 S 15 28 8 15 1020.0 1020.1 70.0
02/07:31pm 13.1 11.2 12.9 99 0.1 S 15 22 8 12 1019.9 1020.0 69.0
02/07:30pm 13.1 10.8 12.9 99 0.1 S 17 22 9 12 1020.0 1020.1 68.8
02/07:00pm 13.0 10.3 12.8 99 0.1 S 19 32 10 17 1019.9 1020.0 65.8
02/06:59pm 13.0 10.3 12.8 99 0.1 S 19 32 10 17 1020.0 1020.1 65.6
02/06:50pm 13.0 10.1 12.8 99 0.1 SSE 20 32 11 17 1020.1 1020.2 64.4
02/06:34pm 13.0 9.7 12.8 99 0.1 S 22 35 12 19 1019.9 1020.0 62.2
02/06:30pm 13.0 9.7 12.8 99 0.1 S 22 32 12 17 1019.8 1019.9 61.4
02/06:13pm 13.0 10.1 12.8 99 0.1 S 20 32 11 17 1019.9 1020.0 60.0
02/06:00pm 13.1 10.2 12.9 99 0.1 S 20 30 11 16 1019.9 1020.0 58.4
02/05:33pm 13.2 10.3 13.0 99 0.1 S 20 28 11 15 1019.9 1020.0 56.4
02/05:30pm 13.2 10.3 13.0 99 0.1 S 20 28 11 15 1019.9 1020.0 56.0
02/05:17pm 13.3 9.7 13.1 99 0.1 S 24 33 13 18 1019.8 1019.9 54.6
02/05:14pm 13.2 9.6 13.0 99 0.1 S 24 33 13 18 1019.8 1019.9 54.2
02/05:13pm 13.2 9.6 13.0 99 0.1 S 24 33 13 18 1019.8 1019.9 54.0
02/05:01pm 13.3 10.1 13.1 99 0.1 S 22 32 12 17 1019.5 1019.6 52.6
02/05:00pm 13.3 10.1 13.1 99 0.1 S 22 32 12 17 1019.5 1019.6 52.4
02/04:44pm 13.3 11.0 13.1 99 0.1 S 17 30 9 16 1019.6 1019.7 50.6
02/04:42pm 13.3 11.0 13.1 99 0.1 S 17 26 9 14 1019.7 1019.8 50.2
02/04:30pm 13.3 11.0 13.1 99 0.1 S 17 22 9 12 1019.8 1019.9 48.8
02/04:27pm 13.3 11.4 13.1 99 0.1 S 15 22 8 12 1019.8 1019.9 48.4
02/04:00pm 13.2 11.7 13.0 99 0.1 SSW 13 15 7 8 1019.8 1019.9 45.8
02/03:56pm 13.2 12.1 13.0 99 0.1 SSW 11 15 6 8 1019.9 1020.0 45.4
02/03:52pm 13.1 12.3 12.9 99 0.1 S 9 13 5 7 1019.9 1020.0 45.0
02/03:47pm 13.1 11.9 12.9 99 0.1 S 11 15 6 8 1020.0 1020.1 44.2
02/03:30pm 13.1 12.3 12.9 99 0.1 S 9 13 5 7 1020.1 1020.2 42.0
02/03:12pm 13.2 12.1 13.0 99 0.1 S 11 17 6 9 1020.2 1020.3 37.6
02/03:00pm 13.3 11.8 13.1 99 0.1 S 13 17 7 9 1020.1 1020.2 35.8
02/02:54pm 13.4 11.9 13.2 99 0.1 S 13 22 7 12 1020.2 1020.3 35.0
02/02:52pm 13.4 11.6 13.2 99 0.1 S 15 22 8 12 1020.1 1020.2 34.8
02/02:41pm 13.5 11.7 13.3 99 0.1 SSE 15 24 8 13 1020.1 1020.2 34.0
02/02:30pm 13.6 11.8 13.4 99 0.1 SSE 15 20 8 11 1020.1 1020.2 33.0
02/02:17pm 13.7 12.7 13.5 99 0.1 SSE 11 17 6 9 1020.2 1020.3 31.0
02/02:00pm 13.8 12.1 13.6 99 0.1 SSE 15 22 8 12 1020.1 1020.2 29.4
02/01:52pm 13.7 12.7 13.5 99 0.1 S 11 15 6 8 1019.9 1020.0 29.0
02/01:30pm 13.6 12.2 13.4 99 0.1 S 13 20 7 11 1019.9 1020.0 27.0
02/01:15pm 13.6 12.6 13.4 99 0.1 S 11 15 6 8 1020.0 1020.1 23.4
02/01:14pm 13.6 12.6 13.4 99 0.1 S 11 15 6 8 1020.0 1020.1 23.2
02/01:00pm 13.5 11.7 13.3 99 0.1 S 15 22 8 12 1020.0 1020.1 21.6
02/12:54pm 13.4 11.9 13.2 99 0.1 SSW 13 19 7 10 1020.0 1020.1 20.8
02/12:46pm 13.3 11.4 13.1 99 0.1 SSW 15 20 8 11 1020.1 1020.2 19.4
02/12:37pm 13.3 11.4 13.1 99 0.1 S 15 22 8 12 1020.2 1020.3 18.4
02/12:30pm 13.3 11.4 13.1 99 0.1 S 15 20 8 11 1020.2 1020.3 17.4
02/12:23pm 13.3 11.4 13.1 99 0.1 S 15 22 8 12 1020.3 1020.4 16.4
02/12:20pm 13.4 11.6 13.2 99 0.1 S 15 26 8 14 1020.5 1020.6 15.6
02/12:09pm 13.4 11.2 13.2 99 0.1 SSW 17 24 9 13 1020.6 1020.7 14.8
02/12:00pm 13.3 11.4 13.1 99 0.1 SSW 15 19 8 10 1020.9 1021.0 13.6
02/11:59am 13.3 11.4 13.1 99 0.1 SSW 15 19 8 10 1020.9 1021.0 13.4
02/11:57am 13.3 11.8 13.1 99 0.1 SSW 13 19 7 10 1020.9 1021.0 13.2
02/11:37am 13.3 11.8 13.1 99 0.1 SSW 13 15 7 8 1021.4 1021.5 11.0
02/11:30am 13.4 12.3 13.2 99 0.1 SSW 11 13 6 7 1021.4 1021.5 10.2
02/11:28am 13.4 12.3 13.2 99 0.1 SSW 11 13 6 7 1021.5 1021.6 10.2
02/11:18am 13.4 13.1 13.2 99 0.1 SSW 7 11 4 6 1021.5 1021.6 9.4
02/11:17am 13.4 13.1 13.2 99 0.1 S 7 11 4 6 1021.5 1021.6 9.4
02/11:00am 13.5 11.7 13.3 99 0.1 SSE 15 20 8 11 1021.8 1021.9 7.0
02/10:51am 13.5 11.7 13.3 99 0.1 SSE 15 26 8 14 1021.8 1021.9 5.6
02/10:50am 13.5 11.7 13.3 99 0.1 SSE 15 26 8 14 1021.7 1021.8 5.4
02/10:33am 13.5 12.1 13.3 99 0.1 S 13 24 7 13 1021.9 1022.0 4.0
02/10:30am 13.6 12.2 13.4 99 0.1 SSW 13 24 7 13 1021.7 1021.8 3.6
02/10:29am 13.6 12.2 13.4 99 0.1 SSW 13 24 7 13 1021.7 1021.8 3.2
02/10:03am 13.8 12.5 13.6 99 0.1 S 13 17 7 9 1022.2 1022.3 1.2
02/10:02am 13.8 12.5 13.6 99 0.1 S 13 17 7 9 1022.3 1022.4 1.0
02/10:00am 13.8 12.5 13.6 99 0.1 S 13 17 7 9 1022.3 1022.4 1.0
02/09:42am 13.9 13.0 13.7 99 0.1 S 11 19 6 10 1022.2 1022.3 0.6
02/09:39am 13.7 12.3 13.5 99 0.1 SSW 13 19 7 10 1022.3 1022.4 0.6
02/09:30am 13.6 12.2 13.4 99 0.1 SSW 13 17 7 9 1022.3 1022.4 0.4
02/09:25am 13.5 12.1 13.3 99 0.1 SSW 13 19 7 10 1022.3 1022.4 0.2
02/09:12am 13.3 11.8 13.1 99 0.1 SSW 13 17 7 9 1022.3 1022.4 0.0
02/09:06am 13.2 12.1 13.0 99 0.1 SSW 11 17 6 9 1022.3 1022.4 0.0
02/09:00am 13.1 11.9 12.9 99 0.1 S 11 17 6 9 1022.3 1022.4 15.0
02/08:55am 13.0 11.8 12.8 99 0.1 S 11 17 6 9 1022.4 1022.5 15.0
02/08:54am 13.0 11.8 12.8 99 0.1 S 11 17 6 9 1022.4 1022.5 15.0
02/08:47am 12.7 11.8 12.5 99 0.1 S 9 13 5 7 1022.3 1022.4 14.6
02/08:43am 12.5 11.5 12.3 99 0.1 S 9 15 5 8 1022.4 1022.5 14.6
02/08:30am 12.2 10.7 12.0 99 0.1 S 11 19 6 10 1022.3 1022.4 13.8
02/08:00am 11.8 9.8 11.6 99 0.1 SSW 13 20 7 11 1022.1 1022.2 13.6
02/07:57am 11.7 9.3 11.5 99 0.1 SSW 15 20 8 11 1022.1 1022.2 13.6
02/07:42am 11.4 8.2 11.2 99 0.1 SW 19 26 10 14 1022.1 1022.2 13.2
02/07:30am 11.6 8.8 11.4 99 0.1 SW 17 20 9 11 1022.1 1022.2 11.6
02/07:15am 11.6 8.8 11.4 99 0.1 SW 17 24 9 13 1022.2 1022.3 9.4
02/07:00am 11.4 9.2 10.9 97 0.3 SW 13 17 7 9 1022.2 1022.3 8.4
02/06:30am 11.5 9.2 10.6 94 0.5 SW 13 19 7 10 1022.1 1022.2 8.2
02/06:00am 11.5 9.5 10.2 92 0.7 SW 11 15 6 8 1022.2 1022.3 8.0
02/05:30am 11.2 9.6 10.1 93 0.6 SW 9 13 5 7 1022.3 1022.4 8.0
02/05:00am 10.8 9.6 9.7 93 0.6 WSW 6 9 3 5 1022.3 1022.4 8.0
02/04:30am 10.9 9.2 9.7 92 0.6 SW 9 15 5 8 1022.1 1022.2 8.0
02/04:00am 10.9 8.8 9.7 92 0.6 SW 11 13 6 7 1022.5 1022.6 8.0
02/03:30am 10.7 8.6 9.8 94 0.5 SW 11 15 6 8 1022.5 1022.6 8.0
02/03:00am 10.6 9.1 10.4 99 0.1 SW 9 13 5 7 1022.4 1022.5 8.0
02/02:30am 10.6 9.4 10.4 99 0.1 W 7 11 4 6 1023.1 1023.2 8.0
02/02:23am 10.6 10.8 10.4 99 0.1 CALM 0 7 0 4 1023.1 1023.2 8.0
02/02:00am 11.0 10.1 10.8 99 0.1 SSW 6 9 3 5 1023.5 1023.6 7.6
02/01:51am 11.1 10.0 10.8 98 0.2 SSE 7 9 4 5 1023.5 1023.6 7.2
02/01:30am 11.1 10.0 10.8 98 0.2 SSW 7 11 4 6 1023.4 1023.5 7.0
02/01:00am 10.5 8.5 10.3 99 0.1 SW 11 13 6 7 1023.4 1023.5 7.0
02/12:30am 10.0 10.0 9.9 99 0.1 CALM 0 0 0 0 1023.5 1023.6 7.0
02/12:00am 10.6 9.4 10.4 99 0.1 SSW 7 11 4 6 1023.6 1023.7 7.0
 
Date/Time
EST
Temp
°C
App
Temp
°C
Dew
Point
°C
Rel
Hum
%
Delta-T
°C
Wind Press
QNH
hPa
Press
MSL
hPa
Rain since
9am
mm
Dir  Spd
km/h
Gust
km/h
Spd
kts
Gust
kts
01/11:30pm 10.5 9.3 10.3 99 0.1 SW 7 11 4 6 1023.9 1024.0 7.0
01/11:00pm 10.4 9.4 10.2 99 0.1 SW 6 9 3 5 1024.2 1024.3 7.0
01/10:30pm 10.4 9.2 10.2 99 0.1 SSW 7 9 4 5 1024.4 1024.5 7.0
01/10:00pm 10.2 10.3 10.1 99 0.1 CALM 0 0 0 0 1024.3 1024.4 6.6
01/09:30pm 10.3 9.6 10.1 99 0.1 W 4 9 2 5 1024.4 1024.5 6.2
01/09:00pm 10.3 9.0 10.1 99 0.1 WSW 7 9 4 5 1024.7 1024.8 6.2
01/08:30pm 10.3 10.4 10.0 98 0.2 CALM 0 0 0 0 1024.8 1024.9 5.8
01/08:00pm 10.6 9.4 10.3 98 0.2 SW 7 9 4 5 1024.5 1024.6 5.6
01/07:30pm 10.5 9.3 10.2 98 0.2 SW 7 9 4 5 1024.5 1024.6 5.4
01/07:00pm 10.5 9.3 10.3 99 0.1 SW 7 9 4 5 1024.3 1024.4 4.8
01/06:30pm 10.3 9.0 10.1 99 0.1 W 7 9 4 5 1024.4 1024.5 4.0
01/06:00pm 10.5 10.6 10.2 98 0.2 CALM 0 7 0 4 1024.2 1024.3 3.0
01/05:39pm 10.6 10.7 10.3 98 0.2 CALM 0 0 0 0 1024.0 1024.1 2.4
01/05:30pm 10.6 10.7 10.1 97 0.3 CALM 0 4 0 2 1023.8 1023.9 2.2
01/05:20pm 10.8 9.8 10.2 96 0.3 NNW 6 6 3 3 1023.9 1024.0 1.8
01/05:00pm 10.6 9.5 10.1 97 0.3 N 6 6 3 3 1023.9 1024.0 1.8
01/04:30pm 11.1 11.2 10.0 93 0.6 CALM 0 0 0 0 1023.8 1023.9 1.6
01/04:00pm 11.3 10.1 10.2 93 0.6 SW 7 11 4 6 1023.7 1023.8 1.6
01/03:30pm 11.0 8.9 9.9 93 0.6 WSW 11 13 6 7 1023.6 1023.7 1.4
01/03:00pm 10.9 8.7 9.2 89 0.8 SW 11 15 6 8 1023.6 1023.7 0.6
01/02:30pm 11.4 9.3 8.4 82 1.5 W 9 9 5 5 1023.9 1024.0 0.2
01/02:00pm 11.6 9.2 8.5 81 1.5 W 11 17 6 9 1024.3 1024.4 0.2
01/01:30pm 11.8 9.8 8.5 80 1.6 W 9 13 5 7 1024.3 1024.4 0.0
01/01:00pm 12.0 9.5 8.1 77 1.9 WSW 11 17 6 9 1024.5 1024.6 0.0
01/12:30pm 12.2 9.5 7.3 72 2.4 SW 11 17 6 9 1025.0 1025.1 0.0
01/12:00pm 12.4 9.7 7.3 71 2.5 WSW 11 17 6 9 1025.3 1025.4 0.0
01/11:30am 12.2 10.0 7.9 75 2.1 SW 9 11 5 6 1025.6 1025.7 0.0
01/11:00am 11.7 9.0 7.4 75 2.1 SW 11 13 6 7 1026.0 1026.1 0.0
01/10:30am 11.5 9.5 7.2 75 2.1 SW 7 9 4 5 1026.1 1026.2 0.0
01/10:00am 11.1 8.7 7.2 77 1.9 SW 9 11 5 6 1026.6 1026.7 0.0
01/09:30am 10.6 8.2 7.1 79 1.7 SW 9 11 5 6 1026.6 1026.7 0.0
01/09:00am 10.0 9.5 7.8 86 1.1 CALM 0 0 0 0 1026.3 1026.4 0.6
01/08:30am 9.6 8.7 7.7 88 0.9 NNW 2 7 1 4 1026.3 1026.4 0.6
01/08:00am 10.0 8.0 6.2 77 1.8 SSW 6 9 3 5 1026.2 1026.3 0.4
01/07:30am 10.1 7.1 6.1 76 1.9 SW 11 15 6 8 1026.5 1026.6 0.4
01/07:00am 9.6 7.0 6.1 79 1.6 SSW 9 11 5 6 1026.1 1026.2 0.4
01/06:30am 9.7 7.8 6.8 82 1.4 SSW 6 9 3 5 1025.7 1025.8 0.4
01/06:00am 9.6 8.5 6.9 83 1.3 N 2 7 1 4 1025.8 1025.9 0.4
01/05:30am 10.4 7.5 6.4 76 1.9 S 11 17 6 9 1025.1 1025.2 0.2
01/05:00am 10.0 8.1 7.4 84 1.2 NNE 7 9 4 5 1025.1 1025.2 0.0
01/04:30am 10.7 8.6 6.8 77 1.8 SSE 7 11 4 6 1024.8 1024.9 0.0
01/04:00am 11.3 8.9 7.0 75 2.0 SSW 9 13 5 7 1025.0 1025.1 0.0
01/03:30am 9.7 9.0 7.0 83 1.3 CALM 0 0 0 0 1025.3 1025.4 0.0
01/03:00am 9.4 8.3 6.7 83 1.3 WSW 2 7 1 4 1025.1 1025.2 0.0
01/02:30am 9.2 8.5 6.8 85 1.1 CALM 0 0 0 0 1024.8 1024.9 0.0
01/02:00am 9.6 8.8 6.5 81 1.4 CALM 0 0 0 0 1025.1 1025.2 0.0
01/01:30am 9.6 8.8 6.7 82 1.4 CALM 0 0 0 0 1025.2 1025.3 0.0
01/01:00am 9.5 8.8 6.9 84 1.2 CALM 0 0 0 0 1025.1 1025.2 0.0
01/12:30am 9.4 8.7 7.0 85 1.1 CALM 0 0 0 0 1025.4 1025.5 0.0
01/12:00am 9.4 8.7 7.0 85 1.1 CALM 0 6 0 3 1025.2 1025.3 0.0
 
Date/Time
EST
Temp
°C
App
Temp
°C
Dew
Point
°C
Rel
Hum
%
Delta-T
°C
Wind Press
QNH
hPa
Press
MSL
hPa
Rain since
9am
mm
Dir  Spd
km/h
Gust
km/h
Spd
kts
Gust
kts
30/11:30pm 9.8 8.9 6.2 78 1.7 CALM 0 0 0 0 1025.4 1025.5 0.0
30/11:00pm 9.4 7.5 6.5 82 1.3 N 6 7 3 4 1025.4 1025.5 0.0
30/10:30pm 10.0 8.8 6.3 78 1.7 WSW 2 9 1 5 1025.5 1025.6 0.0
30/10:00pm 9.9 8.3 6.4 79 1.6 WSW 4 7 2 4 1025.4 1025.5 0.0

Other formats

Comma delimited format used in spreadsheet applications
http://www.bom.gov.au/fwo/IDN60801/IDN60801.94755.axf

JavaScript Object Notation format (JSON) in row-major order
http://www.bom.gov.au/fwo/IDN60801/IDN60801.94755.json

Data quality

Most of these data are generated automatically and are frequently updated. Quality checks on data are not normally performed. It is possible for incorrect values to appear. Refer to information at About Latest Weather Observations and please check the disclaimer before using these data.